sensor_id;sensor_type;location;lat;lon;timestamp;temperature;humidity
7016;DHT22;3548;48.402;9.990;2023-09-19T00:02:17;16.80;99.90
7016;DHT22;3548;48.402;9.990;2023-09-19T00:04:43;16.80;99.90
7016;DHT22;3548;48.402;9.990;2023-09-19T00:07:09;16.90;99.90
7016;DHT22;3548;48.402;9.990;2023-09-19T00:09:34;16.90;99.90
7016;DHT22;3548;48.402;9.990;2023-09-19T00:12:05;16.90;99.90
7016;DHT22;3548;48.402;9.990;2023-09-19T00:14:31;17.00;99.90
7016;DHT22;3548;48.402;9.990;2023-09-19T00:16:59;17.00;99.90
7016;DHT22;3548;48.402;9.990;2023-09-19T00:19:26;16.90;99.90
7016;DHT22;3548;48.402;9.990;2023-09-19T00:21:51;16.90;99.90
7016;DHT22;3548;48.402;9.990;2023-09-19T00:24:19;16.80;99.90
7016;DHT22;3548;48.402;9.990;2023-09-19T00:26:46;16.70;99.90
7016;DHT22;3548;48.402;9.990;2023-09-19T00:29:12;16.70;99.90
7016;DHT22;3548;48.402;9.990;2023-09-19T00:31:43;16.60;99.90
7016;DHT22;3548;48.402;9.990;2023-09-19T00:34:09;16.50;99.90
7016;DHT22;3548;48.402;9.990;2023-09-19T00:36:36;16.50;99.90
7016;DHT22;3548;48.402;9.990;2023-09-19T00:39:04;16.50;99.90
7016;DHT22;3548;48.402;9.990;2023-09-19T00:41:33;16.40;99.90
7016;DHT22;3548;48.402;9.990;2023-09-19T00:44:01;16.40;99.90
7016;DHT22;3548;48.402;9.990;2023-09-19T00:46:27;16.30;99.90
7016;DHT22;3548;48.402;9.990;2023-09-19T00:48:53;16.30;99.90
7016;DHT22;3548;48.402;9.990;2023-09-19T00:51:20;16.30;99.90
7016;DHT22;3548;48.402;9.990;2023-09-19T00:53:48;16.30;99.90
7016;DHT22;3548;48.402;9.990;2023-09-19T00:56:15;16.30;99.90
7016;DHT22;3548;48.402;9.990;2023-09-19T00:58:44;16.30;99.90
7016;DHT22;3548;48.402;9.990;2023-09-19T01:01:10;16.20;99.90
7016;DHT22;3548;48.402;9.990;2023-09-19T01:03:37;16.20;99.90
7016;DHT22;3548;48.402;9.990;2023-09-19T01:06:03;16.20;99.90
7016;DHT22;3548;48.402;9.990;2023-09-19T01:08:29;16.20;99.90
7016;DHT22;3548;48.402;9.990;2023-09-19T01:11:12;16.20;99.90
7016;DHT22;3548;48.402;9.990;2023-09-19T01:16:32;16.20;99.90
7016;DHT22;3548;48.402;9.990;2023-09-19T01:19:14;16.20;99.90
7016;DHT22;3548;48.402;9.990;2023-09-19T01:22:00;16.10;99.90
7016;DHT22;3548;48.402;9.990;2023-09-19T01:25:04;16.10;99.90
7016;DHT22;3548;48.402;9.990;2023-09-19T01:30:09;16.10;99.90
7016;DHT22;3548;48.402;9.990;2023-09-19T01:32:36;16.10;99.90
7016;DHT22;3548;48.402;9.990;2023-09-19T01:35:03;16.10;99.90
7016;DHT22;3548;48.402;9.990;2023-09-19T01:37:31;16.10;99.90
7016;DHT22;3548;48.402;9.990;2023-09-19T01:40:10;16.00;99.90
7016;DHT22;3548;48.402;9.990;2023-09-19T01:42:58;16.00;99.90
7016;DHT22;3548;48.402;9.990;2023-09-19T01:51:00;16.00;99.90
7016;DHT22;3548;48.402;9.990;2023-09-19T01:53:30;16.00;99.90
7016;DHT22;3548;48.402;9.990;2023-09-19T01:55:59;16.00;99.90
7016;DHT22;3548;48.402;9.990;2023-09-19T01:58:47;15.90;99.90
7016;DHT22;3548;48.402;9.990;2023-09-19T02:01:19;15.90;99.90
7016;DHT22;3548;48.402;9.990;2023-09-19T02:03:46;15.90;99.90
7016;DHT22;3548;48.402;9.990;2023-09-19T02:06:15;15.90;99.90
7016;DHT22;3548;48.402;9.990;2023-09-19T02:08:41;15.90;99.90
7016;DHT22;3548;48.402;9.990;2023-09-19T02:11:06;16.00;99.90
7016;DHT22;3548;48.402;9.990;2023-09-19T02:13:32;16.00;99.90
7016;DHT22;3548;48.402;9.990;2023-09-19T02:15:58;16.00;99.90
7016;DHT22;3548;48.402;9.990;2023-09-19T02:18:25;16.00;99.90
7016;DHT22;3548;48.402;9.990;2023-09-19T02:20:53;16.00;99.90
7016;DHT22;3548;48.402;9.990;2023-09-19T02:23:20;16.00;99.90
7016;DHT22;3548;48.402;9.990;2023-09-19T02:25:53;16.00;99.90
7016;DHT22;3548;48.402;9.990;2023-09-19T02:28:19;16.00;99.90
7016;DHT22;3548;48.402;9.990;2023-09-19T02:30:47;16.00;99.90
7016;DHT22;3548;48.402;9.990;2023-09-19T02:33:14;16.00;99.90
7016;DHT22;3548;48.402;9.990;2023-09-19T02:35:40;16.10;99.90
7016;DHT22;3548;48.402;9.990;2023-09-19T02:38:05;16.00;99.90
7016;DHT22;3548;48.402;9.990;2023-09-19T02:40:33;16.00;99.90
7016;DHT22;3548;48.402;9.990;2023-09-19T02:43:01;16.00;99.90
7016;DHT22;3548;48.402;9.990;2023-09-19T02:45:27;16.00;99.90
7016;DHT22;3548;48.402;9.990;2023-09-19T02:47:53;16.00;99.90
7016;DHT22;3548;48.402;9.990;2023-09-19T02:50:18;16.00;99.90
7016;DHT22;3548;48.402;9.990;2023-09-19T02:52:45;16.00;99.90
7016;DHT22;3548;48.402;9.990;2023-09-19T02:55:14;16.10;99.90
7016;DHT22;3548;48.402;9.990;2023-09-19T02:57:54;16.10;99.90
7016;DHT22;3548;48.402;9.990;2023-09-19T03:00:21;16.10;99.90
7016;DHT22;3548;48.402;9.990;2023-09-19T03:02:53;16.10;99.90
7016;DHT22;3548;48.402;9.990;2023-09-19T03:05:19;16.10;99.90
7016;DHT22;3548;48.402;9.990;2023-09-19T03:07:47;16.10;99.90
7016;DHT22;3548;48.402;9.990;2023-09-19T03:10:16;16.10;99.90
7016;DHT22;3548;48.402;9.990;2023-09-19T03:12:42;16.10;99.90
7016;DHT22;3548;48.402;9.990;2023-09-19T03:15:08;16.10;99.90
7016;DHT22;3548;48.402;9.990;2023-09-19T03:17:37;16.10;99.90
7016;DHT22;3548;48.402;9.990;2023-09-19T03:20:03;16.20;99.90
7016;DHT22;3548;48.402;9.990;2023-09-19T03:22:35;16.20;99.90
7016;DHT22;3548;48.402;9.990;2023-09-19T03:25:00;16.20;99.90
7016;DHT22;3548;48.402;9.990;2023-09-19T03:27:26;16.20;99.90
7016;DHT22;3548;48.402;9.990;2023-09-19T03:29:52;16.20;99.90
7016;DHT22;3548;48.402;9.990;2023-09-19T03:32:19;16.20;99.90
7016;DHT22;3548;48.402;9.990;2023-09-19T03:34:46;16.10;99.90
7016;DHT22;3548;48.402;9.990;2023-09-19T03:37:13;16.10;99.90
7016;DHT22;3548;48.402;9.990;2023-09-19T03:39:40;16.10;99.90
7016;DHT22;3548;48.402;9.990;2023-09-19T03:42:05;16.10;99.90
7016;DHT22;3548;48.402;9.990;2023-09-19T03:44:32;16.00;99.90
7016;DHT22;3548;48.402;9.990;2023-09-19T03:46:59;16.10;99.90
7016;DHT22;3548;48.402;9.990;2023-09-19T03:49:24;16.00;99.90
7016;DHT22;3548;48.402;9.990;2023-09-19T03:51:50;16.00;99.90
7016;DHT22;3548;48.402;9.990;2023-09-19T03:54:15;15.90;99.90
7016;DHT22;3548;48.402;9.990;2023-09-19T03:56:42;15.90;99.90
7016;DHT22;3548;48.402;9.990;2023-09-19T03:59:09;15.90;99.90
7016;DHT22;3548;48.402;9.990;2023-09-19T04:01:35;15.80;99.90
7016;DHT22;3548;48.402;9.990;2023-09-19T04:04:00;15.80;99.90
7016;DHT22;3548;48.402;9.990;2023-09-19T04:06:34;15.80;99.90
7016;DHT22;3548;48.402;9.990;2023-09-19T04:09:01;15.80;99.90
7016;DHT22;3548;48.402;9.990;2023-09-19T04:11:27;15.70;99.90
7016;DHT22;3548;48.402;9.990;2023-09-19T04:13:52;15.70;99.90
7016;DHT22;3548;48.402;9.990;2023-09-19T04:16:18;15.70;99.90
7016;DHT22;3548;48.402;9.990;2023-09-19T04:18:44;15.70;99.90
7016;DHT22;3548;48.402;9.990;2023-09-19T04:21:10;15.70;99.90
7016;DHT22;3548;48.402;9.990;2023-09-19T04:23:37;15.70;99.90
7016;DHT22;3548;48.402;9.990;2023-09-19T04:26:02;15.70;99.90
7016;DHT22;3548;48.402;9.990;2023-09-19T04:28:30;15.80;99.90
7016;DHT22;3548;48.402;9.990;2023-09-19T04:30:56;15.80;99.90
7016;DHT22;3548;48.402;9.990;2023-09-19T04:33:23;15.80;99.90
7016;DHT22;3548;48.402;9.990;2023-09-19T04:35:51;15.80;99.90
7016;DHT22;3548;48.402;9.990;2023-09-19T04:38:18;15.80;99.90
7016;DHT22;3548;48.402;9.990;2023-09-19T04:40:45;15.80;99.90
7016;DHT22;3548;48.402;9.990;2023-09-19T04:43:10;15.80;99.90
7016;DHT22;3548;48.402;9.990;2023-09-19T04:45:38;15.80;99.90
7016;DHT22;3548;48.402;9.990;2023-09-19T04:48:04;15.80;99.90
7016;DHT22;3548;48.402;9.990;2023-09-19T04:50:32;15.80;99.90
7016;DHT22;3548;48.402;9.990;2023-09-19T04:52:58;15.80;99.90
7016;DHT22;3548;48.402;9.990;2023-09-19T04:55:24;15.80;99.90
7016;DHT22;3548;48.402;9.990;2023-09-19T04:57:50;15.80;99.90
7016;DHT22;3548;48.402;9.990;2023-09-19T05:00:19;15.80;99.90
7016;DHT22;3548;48.402;9.990;2023-09-19T05:02:45;15.80;99.90
7016;DHT22;3548;48.402;9.990;2023-09-19T05:05:11;15.90;99.90
7016;DHT22;3548;48.402;9.990;2023-09-19T05:07:41;15.90;99.90
7016;DHT22;3548;48.402;9.990;2023-09-19T05:10:08;15.90;99.90
7016;DHT22;3548;48.402;9.990;2023-09-19T05:12:34;15.90;99.90
7016;DHT22;3548;48.402;9.990;2023-09-19T05:15:04;15.90;99.90
7016;DHT22;3548;48.402;9.990;2023-09-19T05:17:30;15.90;99.90
7016;DHT22;3548;48.402;9.990;2023-09-19T05:19:57;15.90;99.90
7016;DHT22;3548;48.402;9.990;2023-09-19T05:22:23;15.90;99.90
7016;DHT22;3548;48.402;9.990;2023-09-19T05:24:50;15.90;99.90
7016;DHT22;3548;48.402;9.990;2023-09-19T05:27:16;15.90;99.90
7016;DHT22;3548;48.402;9.990;2023-09-19T05:29:45;15.90;99.90
7016;DHT22;3548;48.402;9.990;2023-09-19T05:32:11;15.90;99.90
7016;DHT22;3548;48.402;9.990;2023-09-19T05:34:37;15.90;99.90
7016;DHT22;3548;48.402;9.990;2023-09-19T05:37:06;16.00;99.90
7016;DHT22;3548;48.402;9.990;2023-09-19T05:39:33;16.00;99.90
7016;DHT22;3548;48.402;9.990;2023-09-19T05:41:58;16.00;99.90
7016;DHT22;3548;48.402;9.990;2023-09-19T05:44:25;16.00;99.90
7016;DHT22;3548;48.402;9.990;2023-09-19T05:46:53;16.00;99.90
7016;DHT22;3548;48.402;9.990;2023-09-19T05:49:22;16.10;99.90
7016;DHT22;3548;48.402;9.990;2023-09-19T05:51:47;16.10;99.90
7016;DHT22;3548;48.402;9.990;2023-09-19T05:54:13;16.10;99.90
7016;DHT22;3548;48.402;9.990;2023-09-19T05:56:38;16.10;99.90
7016;DHT22;3548;48.402;9.990;2023-09-19T05:59:04;16.10;99.90
7016;DHT22;3548;48.402;9.990;2023-09-19T06:01:30;16.10;99.90
7016;DHT22;3548;48.402;9.990;2023-09-19T06:03:58;16.20;99.90
7016;DHT22;3548;48.402;9.990;2023-09-19T06:06:26;16.10;99.90
7016;DHT22;3548;48.402;9.990;2023-09-19T06:08:51;16.10;99.90
7016;DHT22;3548;48.402;9.990;2023-09-19T06:11:17;16.10;99.90
7016;DHT22;3548;48.402;9.990;2023-09-19T06:13:45;16.10;99.90
7016;DHT22;3548;48.402;9.990;2023-09-19T06:16:12;16.10;99.90
7016;DHT22;3548;48.402;9.990;2023-09-19T06:18:38;16.10;99.90
7016;DHT22;3548;48.402;9.990;2023-09-19T06:21:04;16.20;99.90
7016;DHT22;3548;48.402;9.990;2023-09-19T06:23:33;16.30;99.90
7016;DHT22;3548;48.402;9.990;2023-09-19T06:25:59;16.40;99.90
7016;DHT22;3548;48.402;9.990;2023-09-19T06:28:26;16.50;99.90
7016;DHT22;3548;48.402;9.990;2023-09-19T06:30:56;16.60;99.90
7016;DHT22;3548;48.402;9.990;2023-09-19T06:33:22;16.70;99.90
7016;DHT22;3548;48.402;9.990;2023-09-19T06:35:48;16.70;99.90
7016;DHT22;3548;48.402;9.990;2023-09-19T06:38:13;16.70;99.90
7016;DHT22;3548;48.402;9.990;2023-09-19T06:40:41;16.70;99.90
7016;DHT22;3548;48.402;9.990;2023-09-19T06:43:10;16.70;99.90
7016;DHT22;3548;48.402;9.990;2023-09-19T06:45:36;16.70;99.90
7016;DHT22;3548;48.402;9.990;2023-09-19T06:48:01;16.70;99.90
7016;DHT22;3548;48.402;9.990;2023-09-19T06:50:28;16.70;99.90
7016;DHT22;3548;48.402;9.990;2023-09-19T06:52:56;16.80;99.90
7016;DHT22;3548;48.402;9.990;2023-09-19T06:55:23;16.80;99.90
7016;DHT22;3548;48.402;9.990;2023-09-19T06:57:53;17.00;99.90
7016;DHT22;3548;48.402;9.990;2023-09-19T07:00:22;17.10;99.90
7016;DHT22;3548;48.402;9.990;2023-09-19T07:05:32;17.40;99.90
7016;DHT22;3548;48.402;9.990;2023-09-19T07:07:59;17.50;99.90
7016;DHT22;3548;48.402;9.990;2023-09-19T07:10:25;17.60;99.90
7016;DHT22;3548;48.402;9.990;2023-09-19T07:13:01;17.60;99.90
7016;DHT22;3548;48.402;9.990;2023-09-19T07:15:28;17.70;99.90
7016;DHT22;3548;48.402;9.990;2023-09-19T07:17:55;17.90;99.90
7016;DHT22;3548;48.402;9.990;2023-09-19T07:20:22;18.00;99.90
7016;DHT22;3548;48.402;9.990;2023-09-19T07:22:49;18.10;99.90
7016;DHT22;3548;48.402;9.990;2023-09-19T07:25:16;18.10;99.90
7016;DHT22;3548;48.402;9.990;2023-09-19T07:27:42;18.20;99.90
7016;DHT22;3548;48.402;9.990;2023-09-19T07:30:09;18.30;99.90
7016;DHT22;3548;48.402;9.990;2023-09-19T07:32:35;18.40;99.90
7016;DHT22;3548;48.402;9.990;2023-09-19T07:35:02;18.50;99.90
7016;DHT22;3548;48.402;9.990;2023-09-19T07:37:29;18.50;99.90
7016;DHT22;3548;48.402;9.990;2023-09-19T07:39:56;18.40;99.90
7016;DHT22;3548;48.402;9.990;2023-09-19T07:42:22;18.40;99.90
7016;DHT22;3548;48.402;9.990;2023-09-19T07:44:48;18.30;99.90
7016;DHT22;3548;48.402;9.990;2023-09-19T07:47:16;18.30;99.90
7016;DHT22;3548;48.402;9.990;2023-09-19T07:49:41;18.40;99.90
7016;DHT22;3548;48.402;9.990;2023-09-19T07:52:10;18.40;99.90
7016;DHT22;3548;48.402;9.990;2023-09-19T07:54:36;18.50;99.90
7016;DHT22;3548;48.402;9.990;2023-09-19T07:57:02;18.60;99.90
7016;DHT22;3548;48.402;9.990;2023-09-19T07:59:28;18.60;99.90
7016;DHT22;3548;48.402;9.990;2023-09-19T08:01:54;18.70;99.90
7016;DHT22;3548;48.402;9.990;2023-09-19T08:04:19;18.70;99.90
7016;DHT22;3548;48.402;9.990;2023-09-19T08:06:45;18.70;99.90
7016;DHT22;3548;48.402;9.990;2023-09-19T08:09:11;18.70;99.90
7016;DHT22;3548;48.402;9.990;2023-09-19T08:11:37;18.80;99.90
7016;DHT22;3548;48.402;9.990;2023-09-19T08:14:04;18.90;99.90
7016;DHT22;3548;48.402;9.990;2023-09-19T08:16:31;18.90;99.90
7016;DHT22;3548;48.402;9.990;2023-09-19T08:18:57;19.00;99.90
7016;DHT22;3548;48.402;9.990;2023-09-19T08:21:23;19.10;99.90
7016;DHT22;3548;48.402;9.990;2023-09-19T08:23:50;19.30;99.90
7016;DHT22;3548;48.402;9.990;2023-09-19T08:26:17;19.40;99.90
7016;DHT22;3548;48.402;9.990;2023-09-19T08:28:42;19.60;99.90
7016;DHT22;3548;48.402;9.990;2023-09-19T08:31:08;19.70;99.90
7016;DHT22;3548;48.402;9.990;2023-09-19T08:33:36;19.90;99.90
7016;DHT22;3548;48.402;9.990;2023-09-19T08:36:02;20.10;99.90
7016;DHT22;3548;48.402;9.990;2023-09-19T08:38:31;20.20;99.90
7016;DHT22;3548;48.402;9.990;2023-09-19T08:40:59;20.20;99.90
7016;DHT22;3548;48.402;9.990;2023-09-19T08:43:26;20.10;99.90
7016;DHT22;3548;48.402;9.990;2023-09-19T08:46:18;20.00;99.90
7016;DHT22;3548;48.402;9.990;2023-09-19T08:49:17;19.90;99.90
7016;DHT22;3548;48.402;9.990;2023-09-19T08:51:59;19.70;99.90
7016;DHT22;3548;48.402;9.990;2023-09-19T08:54:30;19.70;99.90
7016;DHT22;3548;48.402;9.990;2023-09-19T08:57:00;19.70;99.90
7016;DHT22;3548;48.402;9.990;2023-09-19T08:59:30;19.70;99.90
7016;DHT22;3548;48.402;9.990;2023-09-19T09:01:56;19.70;99.90
7016;DHT22;3548;48.402;9.990;2023-09-19T09:04:23;19.70;99.90
7016;DHT22;3548;48.402;9.990;2023-09-19T09:06:51;19.60;99.90
7016;DHT22;3548;48.402;9.990;2023-09-19T09:09:19;19.50;99.90
7016;DHT22;3548;48.402;9.990;2023-09-19T09:11:45;19.50;99.90
7016;DHT22;3548;48.402;9.990;2023-09-19T09:14:11;19.60;99.90
7016;DHT22;3548;48.402;9.990;2023-09-19T09:16:38;19.60;99.90
7016;DHT22;3548;48.402;9.990;2023-09-19T09:19:05;19.60;99.90
7016;DHT22;3548;48.402;9.990;2023-09-19T09:21:30;19.60;99.90
7016;DHT22;3548;48.402;9.990;2023-09-19T09:24:30;19.60;99.90
7016;DHT22;3548;48.402;9.990;2023-09-19T09:26:57;19.50;99.90
7016;DHT22;3548;48.402;9.990;2023-09-19T09:34:49;19.50;99.90
7016;DHT22;3548;48.402;9.990;2023-09-19T09:37:17;19.60;99.90
7016;DHT22;3548;48.402;9.990;2023-09-19T09:39:57;19.60;99.90
7016;DHT22;3548;48.402;9.990;2023-09-19T09:42:34;19.70;99.90
7016;DHT22;3548;48.402;9.990;2023-09-19T09:45:20;19.70;99.90
7016;DHT22;3548;48.402;9.990;2023-09-19T09:47:58;19.80;99.90
7016;DHT22;3548;48.402;9.990;2023-09-19T09:50:35;19.80;99.90
7016;DHT22;3548;48.402;9.990;2023-09-19T09:53:39;19.80;99.90
7016;DHT22;3548;48.402;9.990;2023-09-19T09:56:06;19.80;99.90
7016;DHT22;3548;48.402;9.990;2023-09-19T09:58:35;19.70;99.90
7016;DHT22;3548;48.402;9.990;2023-09-19T10:01:01;19.70;99.90
7016;DHT22;3548;48.402;9.990;2023-09-19T10:03:40;19.70;99.90
7016;DHT22;3548;48.402;9.990;2023-09-19T10:06:14;19.80;99.90
7016;DHT22;3548;48.402;9.990;2023-09-19T10:09:07;19.90;99.90
7016;DHT22;3548;48.402;9.990;2023-09-19T10:11:46;20.00;99.90
7016;DHT22;3548;48.402;9.990;2023-09-19T10:14:15;20.10;99.90
7016;DHT22;3548;48.402;9.990;2023-09-19T10:16:53;20.30;99.90
7016;DHT22;3548;48.402;9.990;2023-09-19T10:19:45;20.40;99.90
7016;DHT22;3548;48.402;9.990;2023-09-19T10:22:14;20.30;99.90
7016;DHT22;3548;48.402;9.990;2023-09-19T10:24:49;20.40;99.90
7016;DHT22;3548;48.402;9.990;2023-09-19T10:27:19;20.40;99.90
7016;DHT22;3548;48.402;9.990;2023-09-19T10:29:49;20.50;99.90
7016;DHT22;3548;48.402;9.990;2023-09-19T10:32:16;20.40;99.90
7016;DHT22;3548;48.402;9.990;2023-09-19T10:34:49;20.50;99.90
7016;DHT22;3548;48.402;9.990;2023-09-19T10:37:16;20.50;99.90
7016;DHT22;3548;48.402;9.990;2023-09-19T10:39:46;20.60;99.70
7016;DHT22;3548;48.402;9.990;2023-09-19T10:42:20;20.70;99.90
7016;DHT22;3548;48.402;9.990;2023-09-19T10:44:47;20.80;99.40
7016;DHT22;3548;48.402;9.990;2023-09-19T10:47:14;20.80;98.80
7016;DHT22;3548;48.402;9.990;2023-09-19T10:49:44;20.70;98.80
7016;DHT22;3548;48.402;9.990;2023-09-19T10:52:16;20.70;98.90
7016;DHT22;3548;48.402;9.990;2023-09-19T10:54:49;20.70;98.90
7016;DHT22;3548;48.402;9.990;2023-09-19T10:57:24;20.90;98.70
7016;DHT22;3548;48.402;9.990;2023-09-19T11:00:06;21.10;98.50
7016;DHT22;3548;48.402;9.990;2023-09-19T11:05:39;21.10;98.60
7016;DHT22;3548;48.402;9.990;2023-09-19T11:08:07;21.20;98.40
7016;DHT22;3548;48.402;9.990;2023-09-19T11:10:51;21.40;98.30
7016;DHT22;3548;48.402;9.990;2023-09-19T11:13:24;21.60;97.90
7016;DHT22;3548;48.402;9.990;2023-09-19T11:26:48;22.50;95.50
7016;DHT22;3548;48.402;9.990;2023-09-19T11:29:27;22.40;95.60
7016;DHT22;3548;48.402;9.990;2023-09-19T11:31:54;22.40;95.50
7016;DHT22;3548;48.402;9.990;2023-09-19T11:40:08;22.20;95.30
7016;DHT22;3548;48.402;9.990;2023-09-19T11:42:46;22.30;95.40
7016;DHT22;3548;48.402;9.990;2023-09-19T11:48:23;22.40;94.40
7016;DHT22;3548;48.402;9.990;2023-09-19T11:50:50;22.30;94.70
7016;DHT22;3548;48.402;9.990;2023-09-19T11:53:17;22.30;94.30
7016;DHT22;3548;48.402;9.990;2023-09-19T11:55:42;22.30;94.00
7016;DHT22;3548;48.402;9.990;2023-09-19T11:58:09;22.40;93.40
7016;DHT22;3548;48.402;9.990;2023-09-19T12:00:38;22.30;93.20
7016;DHT22;3548;48.402;9.990;2023-09-19T12:03:09;22.40;93.10
7016;DHT22;3548;48.402;9.990;2023-09-19T12:05:35;22.40;92.90
7016;DHT22;3548;48.402;9.990;2023-09-19T12:08:05;22.40;93.10
7016;DHT22;3548;48.402;9.990;2023-09-19T12:10:47;22.50;93.60
7016;DHT22;3548;48.402;9.990;2023-09-19T12:13:17;22.80;93.40
7016;DHT22;3548;48.402;9.990;2023-09-19T12:15:44;22.80;93.00
7016;DHT22;3548;48.402;9.990;2023-09-19T12:18:28;22.90;92.90
7016;DHT22;3548;48.402;9.990;2023-09-19T12:20:55;22.80;92.80
7016;DHT22;3548;48.402;9.990;2023-09-19T12:23:21;22.80;92.30
7016;DHT22;3548;48.402;9.990;2023-09-19T12:25:46;22.60;92.30
7016;DHT22;3548;48.402;9.990;2023-09-19T12:28:13;22.50;92.40
7016;DHT22;3548;48.402;9.990;2023-09-19T12:30:39;22.60;92.70
7016;DHT22;3548;48.402;9.990;2023-09-19T12:33:17;22.80;92.70
7016;DHT22;3548;48.402;9.990;2023-09-19T12:35:45;22.90;92.30
7016;DHT22;3548;48.402;9.990;2023-09-19T12:38:11;22.90;92.30
7016;DHT22;3548;48.402;9.990;2023-09-19T12:40:38;22.80;92.10
7016;DHT22;3548;48.402;9.990;2023-09-19T12:43:08;22.60;92.20
7016;DHT22;3548;48.402;9.990;2023-09-19T12:45:35;22.60;92.50
7016;DHT22;3548;48.402;9.990;2023-09-19T12:48:22;22.70;92.00
7016;DHT22;3548;48.402;9.990;2023-09-19T12:53:34;23.00;91.40
7016;DHT22;3548;48.402;9.990;2023-09-19T12:56:05;23.00;91.10
7016;DHT22;3548;48.402;9.990;2023-09-19T12:58:34;23.00;90.20
7016;DHT22;3548;48.402;9.990;2023-09-19T13:01:00;23.00;90.10
7016;DHT22;3548;48.402;9.990;2023-09-19T13:03:30;23.00;90.40
7016;DHT22;3548;48.402;9.990;2023-09-19T13:06:04;23.10;90.50
7016;DHT22;3548;48.402;9.990;2023-09-19T13:08:31;23.20;88.80
7016;DHT22;3548;48.402;9.990;2023-09-19T13:13:32;23.30;88.70
7016;DHT22;3548;48.402;9.990;2023-09-19T13:15:58;23.40;87.80
7016;DHT22;3548;48.402;9.990;2023-09-19T13:18:25;23.30;88.40
7016;DHT22;3548;48.402;9.990;2023-09-19T13:21:14;23.40;87.80
7016;DHT22;3548;48.402;9.990;2023-09-19T13:23:54;23.40;87.50
7016;DHT22;3548;48.402;9.990;2023-09-19T13:26:27;23.20;87.20
7016;DHT22;3548;48.402;9.990;2023-09-19T13:28:54;23.10;86.30
7016;DHT22;3548;48.402;9.990;2023-09-19T13:31:19;23.00;87.00
7016;DHT22;3548;48.402;9.990;2023-09-19T13:33:47;23.00;87.10
7016;DHT22;3548;48.402;9.990;2023-09-19T13:36:13;23.10;87.70
7016;DHT22;3548;48.402;9.990;2023-09-19T13:38:59;22.90;87.70
7016;DHT22;3548;48.402;9.990;2023-09-19T13:41:25;22.80;88.20
7016;DHT22;3548;48.402;9.990;2023-09-19T13:43:51;22.80;88.60
7016;DHT22;3548;48.402;9.990;2023-09-19T13:46:18;22.90;88.80
7016;DHT22;3548;48.402;9.990;2023-09-19T13:48:51;22.90;88.10
7016;DHT22;3548;48.402;9.990;2023-09-19T13:51:20;23.10;88.10
7016;DHT22;3548;48.402;9.990;2023-09-19T13:53:48;23.10;87.40
7016;DHT22;3548;48.402;9.990;2023-09-19T13:56:14;23.10;87.80
7016;DHT22;3548;48.402;9.990;2023-09-19T13:58:39;23.10;86.90
7016;DHT22;3548;48.402;9.990;2023-09-19T14:01:07;23.00;87.40
7016;DHT22;3548;48.402;9.990;2023-09-19T14:03:38;22.90;87.20
7016;DHT22;3548;48.402;9.990;2023-09-19T14:06:04;22.70;87.60
7016;DHT22;3548;48.402;9.990;2023-09-19T14:08:30;22.70;88.20
7016;DHT22;3548;48.402;9.990;2023-09-19T14:10:56;22.80;88.10
7016;DHT22;3548;48.402;9.990;2023-09-19T14:13:21;22.90;87.90
7016;DHT22;3548;48.402;9.990;2023-09-19T14:15:47;22.90;87.50
7016;DHT22;3548;48.402;9.990;2023-09-19T14:18:12;23.10;87.90
7016;DHT22;3548;48.402;9.990;2023-09-19T14:20:39;23.20;87.80
7016;DHT22;3548;48.402;9.990;2023-09-19T14:23:08;23.40;88.10
7016;DHT22;3548;48.402;9.990;2023-09-19T14:25:36;23.40;87.90
7016;DHT22;3548;48.402;9.990;2023-09-19T14:28:04;23.40;88.70
7016;DHT22;3548;48.402;9.990;2023-09-19T14:30:30;23.40;89.40
7016;DHT22;3548;48.402;9.990;2023-09-19T14:32:57;23.40;89.30
7016;DHT22;3548;48.402;9.990;2023-09-19T14:35:23;23.50;89.70
7016;DHT22;3548;48.402;9.990;2023-09-19T14:37:49;23.50;88.10
7016;DHT22;3548;48.402;9.990;2023-09-19T14:40:14;23.60;88.30
7016;DHT22;3548;48.402;9.990;2023-09-19T14:42:43;23.70;88.30
7016;DHT22;3548;48.402;9.990;2023-09-19T14:45:10;23.80;88.30
7016;DHT22;3548;48.402;9.990;2023-09-19T14:47:37;23.80;87.20
7016;DHT22;3548;48.402;9.990;2023-09-19T14:50:03;23.80;87.20
7016;DHT22;3548;48.402;9.990;2023-09-19T14:52:32;23.70;87.00
7016;DHT22;3548;48.402;9.990;2023-09-19T14:54:59;23.40;87.60
7016;DHT22;3548;48.402;9.990;2023-09-19T14:57:24;23.40;87.70
7016;DHT22;3548;48.402;9.990;2023-09-19T14:59:51;23.40;87.60
7016;DHT22;3548;48.402;9.990;2023-09-19T15:02:17;23.40;87.50
7016;DHT22;3548;48.402;9.990;2023-09-19T15:04:42;23.50;86.90
7016;DHT22;3548;48.402;9.990;2023-09-19T15:07:12;23.50;87.00
7016;DHT22;3548;48.402;9.990;2023-09-19T15:09:41;23.60;86.10
7016;DHT22;3548;48.402;9.990;2023-09-19T15:12:06;23.60;85.50
7016;DHT22;3548;48.402;9.990;2023-09-19T15:14:32;23.40;85.90
7016;DHT22;3548;48.402;9.990;2023-09-19T15:16:58;23.40;86.70
7016;DHT22;3548;48.402;9.990;2023-09-19T15:19:23;23.30;87.00
7016;DHT22;3548;48.402;9.990;2023-09-19T15:21:49;23.30;87.00
7016;DHT22;3548;48.402;9.990;2023-09-19T15:24:15;23.30;87.30
7016;DHT22;3548;48.402;9.990;2023-09-19T15:26:42;23.40;87.60
7016;DHT22;3548;48.402;9.990;2023-09-19T15:29:09;23.40;87.50
7016;DHT22;3548;48.402;9.990;2023-09-19T15:31:35;23.40;87.50
7016;DHT22;3548;48.402;9.990;2023-09-19T15:34:05;23.30;87.60
7016;DHT22;3548;48.402;9.990;2023-09-19T15:36:33;23.30;87.70
7016;DHT22;3548;48.402;9.990;2023-09-19T15:39:08;23.20;85.70
7016;DHT22;3548;48.402;9.990;2023-09-19T15:41:41;23.20;86.40
7016;DHT22;3548;48.402;9.990;2023-09-19T15:44:15;23.10;86.70
7016;DHT22;3548;48.402;9.990;2023-09-19T15:46:41;23.00;86.60
7016;DHT22;3548;48.402;9.990;2023-09-19T15:49:07;23.00;87.00
7016;DHT22;3548;48.402;9.990;2023-09-19T15:51:34;23.00;87.10
7016;DHT22;3548;48.402;9.990;2023-09-19T15:54:02;23.00;87.60
7016;DHT22;3548;48.402;9.990;2023-09-19T15:56:33;23.00;87.70
7016;DHT22;3548;48.402;9.990;2023-09-19T15:59:00;22.80;88.10
7016;DHT22;3548;48.402;9.990;2023-09-19T16:01:26;22.80;88.50
7016;DHT22;3548;48.402;9.990;2023-09-19T16:03:53;22.70;89.00
7016;DHT22;3548;48.402;9.990;2023-09-19T16:06:25;22.70;89.50
7016;DHT22;3548;48.402;9.990;2023-09-19T16:08:53;22.70;90.10
7016;DHT22;3548;48.402;9.990;2023-09-19T16:11:19;22.70;90.20
7016;DHT22;3548;48.402;9.990;2023-09-19T16:13:49;22.60;90.70
7016;DHT22;3548;48.402;9.990;2023-09-19T16:16:16;22.60;91.00
7016;DHT22;3548;48.402;9.990;2023-09-19T16:18:47;22.60;91.20
7016;DHT22;3548;48.402;9.990;2023-09-19T16:21:16;22.60;91.40
7016;DHT22;3548;48.402;9.990;2023-09-19T16:23:45;22.50;91.50
7016;DHT22;3548;48.402;9.990;2023-09-19T16:26:13;22.50;91.80
7016;DHT22;3548;48.402;9.990;2023-09-19T16:28:40;22.40;92.00
7016;DHT22;3548;48.402;9.990;2023-09-19T16:31:07;22.30;92.40
7016;DHT22;3548;48.402;9.990;2023-09-19T16:33:34;22.30;92.70
7016;DHT22;3548;48.402;9.990;2023-09-19T16:36:02;22.20;92.90
7016;DHT22;3548;48.402;9.990;2023-09-19T16:38:28;22.10;93.10
7016;DHT22;3548;48.402;9.990;2023-09-19T16:40:56;22.10;93.30
7016;DHT22;3548;48.402;9.990;2023-09-19T16:43:24;22.00;93.40
7016;DHT22;3548;48.402;9.990;2023-09-19T16:45:57;22.00;93.60
7016;DHT22;3548;48.402;9.990;2023-09-19T16:48:23;21.90;93.90
7016;DHT22;3548;48.402;9.990;2023-09-19T16:50:53;21.90;94.00
7016;DHT22;3548;48.402;9.990;2023-09-19T16:53:20;21.90;94.20
7016;DHT22;3548;48.402;9.990;2023-09-19T16:55:47;21.70;94.40
7016;DHT22;3548;48.402;9.990;2023-09-19T16:58:16;21.60;94.70
7016;DHT22;3548;48.402;9.990;2023-09-19T17:00:43;21.50;94.90